Архив погоды в Волжской ГМО

Метеограмма Волжская ГМО
Вторник, 23 Апреля
Время местн. Темп Ветер Видим Явления Облачность нижн/средн/верх Атм. давл. Влжн Точка росы ВНГО R Сост. почвы Tg s
Напр Скр Прв ур.ст ур.м изм
09:00 +7.4° Ю,Ю-З 1 1 50 км - облачно 759 769 -0.2 56% -0.7° 600 м - - - -
06:00 +5° З,С-З 1 1 50 км - облачно 760 769 +0.3 66% -0.9° более 2.5 км - Влажная (без луж) - -
03:00 +3.8° штиль 0 0 10 км - переменная облачность 759 769 -0.2 73% -0.5° более 2.5 км - - - -
00:00 +6.6° штиль 0 0 10 км - ясно 765 769 0 54% -2.1° более 2.5 км - - - -
Понедельник, 22 Апреля
Время местн. Темп Ветер Видим Явления Облачность нижн/средн/верх Атм. давл. Влжн Точка росы ВНГО R Сост. почвы Tg s
Напр Скр Прв ур.ст ур.м изм
21:00 +11.3° штиль 0 0 10 км - ясно 759 769 +0.1 45% -0.2° более 2.5 км - - - -
18:00 +16.1° С 2 3 50 км - незначительная облачность 759 769 -0.8 19% -7.4° более 2.5 км - - - -
15:00 +16.7° С-З 3 4 50 км - переменная облачность 760 769 -1.4 31% -0.7° - - - - -
12:00 +14.7° С 3 6 50 км - переменная облачность 762 771 -0.4 35% -0.7° - - - - -
09:00 +8° З,Ю-З 1 1 50 км - незначительная облачность 762 772 +0.2 52% -1.2° более 2.5 км - - - -
06:00 +0.5° штиль 0 0 50 км - переменная облачность 762 772 +0.3 94% -0.3° более 2.5 км - Влажная (без луж) - -
03:00 +1.8° штиль 0 0 10 км - незначительная облачность 761 771 +0.2 80% -1.3° более 2.5 км - - - -
00:00 +3.9° штиль 0 0 10 км - переменная облачность 761 771 +0.3 73% -0.4° более 2.5 км - - - -
Воскресенье, 21 Апреля
Время местн. Темп Ветер Видим Явления Облачность нижн/средн/верх Атм. давл. Влжн Точка росы ВНГО R Сост. почвы Tg s
Напр Скр Прв ур.ст ур.м изм
21:00 +8.9° С 1 1 10 км - переменная облачность 761 770 +0.2 44% -2.7° - - - - -
18:00 +15.2° С-З 1 3 50 км - переменная облачность 761 770 -0.7 31% -1.9° - - - - -
15:00 +15.3° З 2 3 50 км - переменная облачность 761 771 -0.7 25% -4.4° - - - - -
12:00 +13.8° З 2 3 50 км - переменная облачность 762 771 0 26% -5.4° - - - - -
09:00 +8.5° Ю-З 1 1 50 км - переменная облачность 762 772 +0.5 55% более 2.5 км - - - -
06:00 -1.4° В 1 1 50 км - переменная облачность 762 771 +0.5 89% -2.9° более 2.5 км - Замерзшая - -
03:00 -0.5° штиль 0 1 10 км - ясно 761 771 +0.3 75% -4.3° более 2.5 км - - - -
00:00 +2.3° штиль 0 1 10 км - ясно 761 771 +0.5 58% -5.2° более 2.5 км - - - -
Суббота, 20 Апреля
Время местн. Темп Ветер Видим Явления Облачность нижн/средн/верх Атм. давл. Влжн Точка росы ВНГО R Сост. почвы Tg s
Напр Скр Прв ур.ст ур.м изм
21:00 +7.1° штиль 0 0 10 км - ясно 760 770 +0.7 46% -3.6° более 2.5 км - - - -
18:00 +13.5° штиль 0 1 20 км - переменная облачность 760 769 -0.1 36% -1.2° более 2.5 км - - - -
15:00 +13.8° З 1 1 20 км - переменная облачность 760 769 -0.3 25% -5.7° 600 м - - - -
12:00 +11.9° З 1 2 50 км - переменная облачность 760 770 -0.1 29% -5.4° 600 м - - - -
09:00 +7.3° З,Ю-З 1 1 50 км - переменная облачность 760 770 +0.2 40% -5.4° - - - - -
06:00 -0.8° штиль 0 0 50 км - преимущественно облачно 760 770 -0.3 86% -2.9° - - Замерзшая - -